createdAt,value
2018-07-09T00:00:18.265Z,20.23
2018-07-09T00:02:47.401Z,20.30
2018-07-09T00:05:16.533Z,19.95
2018-07-09T00:07:46.470Z,20.15
2018-07-09T00:10:25.609Z,20.01
2018-07-09T00:12:54.736Z,19.87
2018-07-09T00:15:23.841Z,19.87
2018-07-09T00:17:52.978Z,19.87
2018-07-09T00:20:22.073Z,19.98
2018-07-09T00:22:51.194Z,19.75
2018-07-09T00:25:20.292Z,19.81
2018-07-09T00:27:49.382Z,19.87
2018-07-09T00:30:18.540Z,19.87
2018-07-09T00:32:47.681Z,19.45
2018-07-09T00:35:16.801Z,19.58
2018-07-09T00:37:45.909Z,19.44
2018-07-09T00:40:15.029Z,19.38
2018-07-09T00:42:44.469Z,19.58
2018-07-09T00:45:13.613Z,19.34
2018-07-09T00:47:42.756Z,19.45
2018-07-09T00:50:11.936Z,19.40
2018-07-09T00:52:41.060Z,19.34
2018-07-09T00:55:10.189Z,19.57
2018-07-09T00:57:39.529Z,19.55
2018-07-09T01:00:08.657Z,19.33
2018-07-09T01:02:37.769Z,19.37
2018-07-09T01:05:07.165Z,19.37
2018-07-09T01:07:36.695Z,19.31
2018-07-09T01:10:05.834Z,19.07
2018-07-09T01:12:34.927Z,19.19
2018-07-09T01:15:04.066Z,19.00
2018-07-09T01:17:33.181Z,19.10
2018-07-09T01:20:02.284Z,19.14
2018-07-09T01:22:31.427Z,19.14
2018-07-09T01:25:00.520Z,19.10
2018-07-09T01:27:29.622Z,19.10
2018-07-09T01:30:05.065Z,19.21
2018-07-09T01:32:34.537Z,19.16
2018-07-09T01:35:03.718Z,19.18
2018-07-09T01:37:32.833Z,19.13
2018-07-09T01:40:01.950Z,19.11
2018-07-09T01:42:31.054Z,18.71
2018-07-09T01:45:00.130Z,19.02
2018-07-09T01:47:29.209Z,18.84
2018-07-09T01:49:58.285Z,19.08
2018-07-09T01:52:27.601Z,18.89
2018-07-09T01:54:56.693Z,18.89
2018-07-09T01:57:25.765Z,18.90
2018-07-09T01:59:54.865Z,18.88
2018-07-09T02:02:24.189Z,18.93
2018-07-09T02:04:53.301Z,18.69
2018-07-09T02:07:22.405Z,18.74
2018-07-09T02:09:51.876Z,18.61
2018-07-09T02:12:21.009Z,18.29
2018-07-09T02:14:50.098Z,18.51
2018-07-09T02:17:19.197Z,18.42
2018-07-09T02:19:48.333Z,18.53
2018-07-09T02:22:17.458Z,18.63
2018-07-09T02:24:46.541Z,18.54
2018-07-09T02:27:15.629Z,18.39
2018-07-09T02:29:44.723Z,18.65
2018-07-09T02:32:13.809Z,18.45
2018-07-09T02:34:42.901Z,18.42
2018-07-09T02:37:11.997Z,18.37
2018-07-09T02:39:41.077Z,18.23
2018-07-09T02:42:10.193Z,18.11
2018-07-09T02:44:39.270Z,18.05
2018-07-09T02:47:08.365Z,18.05
2018-07-09T02:49:37.449Z,18.10
2018-07-09T02:52:06.597Z,18.10
2018-07-09T02:54:35.692Z,18.14
2018-07-09T02:57:04.818Z,18.03
2018-07-09T02:59:33.898Z,17.99
2018-07-09T03:02:03.033Z,17.83
2018-07-09T03:04:32.118Z,17.96
2018-07-09T03:07:01.214Z,17.99
2018-07-09T03:09:30.281Z,18.04
2018-07-09T03:11:59.377Z,18.07
2018-07-09T03:14:28.473Z,18.08
2018-07-09T03:16:57.578Z,17.84
2018-07-09T03:19:26.657Z,17.88
2018-07-09T03:21:55.765Z,17.93
2018-07-09T03:24:24.853Z,17.87
2018-07-09T03:26:53.949Z,17.97
2018-07-09T03:29:23.021Z,17.79
2018-07-09T03:31:52.105Z,17.74
2018-07-09T03:34:21.205Z,17.71
2018-07-09T03:36:50.297Z,17.71
2018-07-09T03:39:19.424Z,17.67
2018-07-09T03:41:48.525Z,17.90
2018-07-09T03:44:17.625Z,17.73
2018-07-09T03:46:46.697Z,17.69
2018-07-09T03:49:15.800Z,17.64
2018-07-09T03:51:44.905Z,17.71
2018-07-09T03:54:14.068Z,17.64
2018-07-09T03:56:43.162Z,17.67
2018-07-09T03:59:12.253Z,17.63
2018-07-09T04:01:41.329Z,17.60
2018-07-09T04:04:10.434Z,17.65
2018-07-09T04:06:39.531Z,17.70
2018-07-09T04:09:08.643Z,17.61
2018-07-09T04:11:37.717Z,17.69
2018-07-09T04:14:06.801Z,17.74
2018-07-09T04:16:35.969Z,17.50
2018-07-09T04:19:05.094Z,17.32
2018-07-09T04:21:34.198Z,17.32
2018-07-09T04:24:03.297Z,17.43
2018-07-09T04:26:32.394Z,17.46
2018-07-09T04:29:01.472Z,17.33
2018-07-09T04:31:30.564Z,17.39
2018-07-09T04:33:59.681Z,17.55
2018-07-09T04:36:28.790Z,17.65
2018-07-09T04:38:57.869Z,17.53
2018-07-09T04:41:26.961Z,17.35
2018-07-09T04:43:56.062Z,17.66
2018-07-09T04:46:25.225Z,17.58
2018-07-09T04:48:54.312Z,17.54
2018-07-09T04:51:23.405Z,17.58
2018-07-09T04:53:52.529Z,17.64
2018-07-09T04:56:21.605Z,17.74
2018-07-09T04:58:50.847Z,17.69
2018-07-09T05:01:19.929Z,17.76
2018-07-09T05:03:49.060Z,17.84
2018-07-09T05:06:18.145Z,17.66
2018-07-09T05:08:47.242Z,17.66
2018-07-09T05:11:16.341Z,17.77
2018-07-09T05:13:45.433Z,17.81
2018-07-09T05:16:14.517Z,17.87
2018-07-09T05:18:43.607Z,17.75
2018-07-09T05:21:12.685Z,18.01
2018-07-09T05:23:41.765Z,17.99
2018-07-09T05:26:10.873Z,18.07
2018-07-09T05:28:39.961Z,18.20
2018-07-09T05:31:09.060Z,18.34
2018-07-09T05:33:38.146Z,18.28
2018-07-09T05:36:07.278Z,18.28
2018-07-09T05:38:36.397Z,18.22
2018-07-09T05:41:05.510Z,18.39
2018-07-09T05:43:35.473Z,18.61
2018-07-09T05:46:05.313Z,18.55
2018-07-09T05:48:34.477Z,18.35
2018-07-09T05:51:03.590Z,18.52
2018-07-09T05:53:32.699Z,18.49
2018-07-09T05:56:01.805Z,18.53
2018-07-09T05:58:30.906Z,18.55
2018-07-09T06:01:00.103Z,18.58
2018-07-09T06:03:29.191Z,18.48
2018-07-09T06:05:58.305Z,18.49
2018-07-09T06:08:27.465Z,18.53
2018-07-09T06:10:56.561Z,18.61
2018-07-09T06:13:25.687Z,18.63
2018-07-09T06:15:54.766Z,18.74
2018-07-09T06:18:23.941Z,18.79
2018-07-09T06:20:53.037Z,18.81
2018-07-09T06:23:22.549Z,18.92
2018-07-09T06:25:51.666Z,18.92
2018-07-09T06:28:20.797Z,18.93
2018-07-09T06:30:49.865Z,18.87
2018-07-09T06:33:18.953Z,18.98
2018-07-09T06:35:48.068Z,19.14
2018-07-09T06:38:17.162Z,19.03
2018-07-09T06:40:46.309Z,19.30
2018-07-09T06:43:15.427Z,19.38
2018-07-09T06:45:44.549Z,19.25
2018-07-09T06:48:13.682Z,19.20
2018-07-09T06:50:42.746Z,19.42
2018-07-09T06:53:11.937Z,19.75
2018-07-09T06:55:41.085Z,19.50
2018-07-09T06:58:10.207Z,19.49
2018-07-09T07:00:39.365Z,19.47
2018-07-09T07:03:08.466Z,19.85
2018-07-09T07:05:37.561Z,20.04
2018-07-09T07:08:06.677Z,20.15
2018-07-09T07:10:35.777Z,20.24
2018-07-09T07:13:04.890Z,21.06
2018-07-09T07:15:34.047Z,21.34
2018-07-09T07:18:03.144Z,20.74
2018-07-09T07:20:32.231Z,21.25
2018-07-09T07:23:01.355Z,20.91
2018-07-09T07:25:30.475Z,21.67
2018-07-09T07:27:59.657Z,21.17
2018-07-09T07:30:28.801Z,21.50
2018-07-09T07:32:57.933Z,21.57
2018-07-09T07:35:27.074Z,21.56
2018-07-09T07:37:56.219Z,21.44
2018-07-09T07:40:25.309Z,22.76
2018-07-09T07:42:54.425Z,23.13
2018-07-09T07:45:23.520Z,22.63
2018-07-09T07:47:52.638Z,22.25
2018-07-09T07:50:21.752Z,22.04
2018-07-09T07:52:51.233Z,23.08
2018-07-09T07:55:20.344Z,23.40
2018-07-09T07:57:49.455Z,22.77
2018-07-09T08:00:18.553Z,22.87
2018-07-09T08:02:47.708Z,23.29
2018-07-09T08:05:16.809Z,22.61
2018-07-09T08:07:45.918Z,23.42
2018-07-09T08:10:15.010Z,22.95
2018-07-09T08:13:27.174Z,22.35
2018-07-09T08:15:13.218Z,22.61
2018-07-09T08:17:42.477Z,22.76
2018-07-09T08:20:11.613Z,22.99
2018-07-09T08:22:40.730Z,22.87
2018-07-09T08:25:09.888Z,23.05
2018-07-09T08:27:38.897Z,23.38
2018-07-09T08:30:08.214Z,23.94
2018-07-09T08:32:37.362Z,23.32
2018-07-09T08:35:06.513Z,23.51
2018-07-09T08:37:36.146Z,23.53
2018-07-09T08:40:05.353Z,24.11
2018-07-09T08:42:34.477Z,23.73
2018-07-09T08:45:03.655Z,24.18
2018-07-09T08:47:32.828Z,23.69
2018-07-09T08:50:01.983Z,23.87
2018-07-09T08:52:31.117Z,23.97
2018-07-09T08:55:00.237Z,24.70
2018-07-09T08:57:29.382Z,24.11
2018-07-09T08:59:58.495Z,24.65
2018-07-09T09:02:27.586Z,25.32
2018-07-09T09:04:56.677Z,24.96
2018-07-09T09:07:25.813Z,24.22
2018-07-09T09:09:54.897Z,24.60
2018-07-09T09:12:23.998Z,24.70
2018-07-09T09:14:53.264Z,25.40
2018-07-09T09:17:22.360Z,25.16
2018-07-09T09:19:51.476Z,24.87
2018-07-09T09:22:20.597Z,24.98
2018-07-09T09:24:49.692Z,24.21
2018-07-09T09:27:18.789Z,23.98
2018-07-09T09:29:47.909Z,24.34
2018-07-09T09:32:17.009Z,24.74
2018-07-09T09:34:46.105Z,24.75
2018-07-09T09:37:15.241Z,24.45
2018-07-09T09:39:44.340Z,24.58
2018-07-09T09:42:13.465Z,24.79
2018-07-09T09:44:42.714Z,24.98
2018-07-09T09:47:11.793Z,25.20
2018-07-09T09:49:40.937Z,25.37
2018-07-09T09:52:10.089Z,24.71
2018-07-09T09:54:39.189Z,24.23
2018-07-09T09:57:08.357Z,24.33
2018-07-09T09:59:37.476Z,24.61
2018-07-09T10:02:06.603Z,24.83
2018-07-09T10:04:35.724Z,25.13
2018-07-09T10:07:04.838Z,25.11
2018-07-09T10:09:33.961Z,25.33
2018-07-09T10:12:03.059Z,25.14
2018-07-09T10:14:33.006Z,24.50
2018-07-09T10:17:03.327Z,24.23
2018-07-09T10:19:32.441Z,24.72
2018-07-09T10:22:01.558Z,24.97
2018-07-09T10:24:30.678Z,25.62
2018-07-09T10:26:59.765Z,26.08
2018-07-09T10:29:29.115Z,26.21
2018-07-09T10:31:58.265Z,25.20
2018-07-09T10:34:27.356Z,24.86
2018-07-09T10:36:56.482Z,24.05
2018-07-09T10:39:25.582Z,24.40
2018-07-09T10:41:54.668Z,24.95
2018-07-09T10:44:24.133Z,24.97
2018-07-09T10:46:53.230Z,24.45
2018-07-09T10:49:22.389Z,24.44
2018-07-09T10:51:51.521Z,24.84
2018-07-09T10:54:20.600Z,24.71
2018-07-09T10:56:49.728Z,24.65
2018-07-09T10:59:18.837Z,24.43
2018-07-09T11:01:47.946Z,24.51
2018-07-09T11:04:17.061Z,24.96
2018-07-09T11:06:46.175Z,25.29
2018-07-09T11:09:15.325Z,24.75
2018-07-09T11:11:44.433Z,25.29
2018-07-09T11:14:13.533Z,25.59
2018-07-09T11:16:42.624Z,25.33
2018-07-09T11:19:11.758Z,25.85
2018-07-09T11:21:40.920Z,26.11
2018-07-09T11:24:09.954Z,26.19
2018-07-09T11:26:39.045Z,25.74
2018-07-09T11:29:08.155Z,25.28
2018-07-09T11:31:37.291Z,25.39
2018-07-09T11:34:06.418Z,25.73
2018-07-09T11:36:35.565Z,25.33
2018-07-09T11:39:05.442Z,25.19
2018-07-09T11:41:34.553Z,25.09
2018-07-09T11:44:03.697Z,25.41
2018-07-09T11:46:32.801Z,25.72
2018-07-09T11:49:01.885Z,25.94
2018-07-09T11:51:31.045Z,25.87
2018-07-09T11:54:00.177Z,25.34
2018-07-09T11:56:29.286Z,25.49
2018-07-09T11:58:58.441Z,25.36
2018-07-09T12:01:27.521Z,25.12
2018-07-09T12:03:56.671Z,24.93
2018-07-09T12:06:25.801Z,25.10
2018-07-09T12:08:54.905Z,24.92
2018-07-09T12:11:24.021Z,24.88
2018-07-09T12:13:53.089Z,25.18
2018-07-09T12:16:22.200Z,25.11
2018-07-09T12:18:51.334Z,25.03
2018-07-09T12:21:20.464Z,25.00
2018-07-09T12:23:49.562Z,25.01
2018-07-09T12:26:18.713Z,25.15
2018-07-09T12:28:47.865Z,25.72
2018-07-09T12:31:16.914Z,25.83
2018-07-09T12:33:46.037Z,26.41
2018-07-09T12:36:15.207Z,25.92
2018-07-09T12:38:44.255Z,26.07
2018-07-09T12:41:13.345Z,25.65
2018-07-09T12:43:42.511Z,25.65
2018-07-09T12:46:11.565Z,25.67
2018-07-09T12:48:40.653Z,25.41
2018-07-09T12:51:09.737Z,25.59
2018-07-09T12:53:38.873Z,25.49
2018-07-09T12:56:07.975Z,25.23
2018-07-09T12:58:37.097Z,25.30
2018-07-09T13:01:06.288Z,25.53
2018-07-09T13:03:35.418Z,25.36
2018-07-09T13:06:04.510Z,25.69
2018-07-09T13:08:33.624Z,26.28
2018-07-09T13:11:02.803Z,26.18
2018-07-09T13:13:31.913Z,26.32
2018-07-09T13:16:01.053Z,26.95
2018-07-09T13:18:30.172Z,27.19
2018-07-09T13:21:00.113Z,26.77
2018-07-09T13:23:29.217Z,26.71
2018-07-09T13:25:58.333Z,26.67
2018-07-09T13:28:27.453Z,26.35
2018-07-09T13:30:56.625Z,26.12
2018-07-09T13:33:25.810Z,25.94
2018-07-09T13:35:55.980Z,25.90
2018-07-09T13:38:25.161Z,25.58
2018-07-09T13:40:54.318Z,25.44
2018-07-09T13:43:23.456Z,25.57
2018-07-09T13:45:52.569Z,25.29
2018-07-09T13:48:21.723Z,25.72
2018-07-09T13:50:50.917Z,25.74
2018-07-09T13:53:20.105Z,25.60
2018-07-09T13:55:49.261Z,25.59
2018-07-09T13:58:18.444Z,25.39
2018-07-09T14:00:47.509Z,25.56
2018-07-09T14:03:16.594Z,26.09
2018-07-09T14:05:45.695Z,26.00
2018-07-09T14:08:14.812Z,26.10
2018-07-09T14:10:43.942Z,25.74
2018-07-09T14:13:13.087Z,25.88
2018-07-09T14:15:42.177Z,25.96
2018-07-09T14:18:11.373Z,25.86
2018-07-09T14:20:45.375Z,25.87
2018-07-09T14:23:16.822Z,25.75
2018-07-09T14:25:46.338Z,25.76
2018-07-09T14:28:15.430Z,25.97
2018-07-09T14:30:44.532Z,25.89
2018-07-09T14:33:13.634Z,26.03
2018-07-09T14:35:43.330Z,25.66
2018-07-09T14:38:12.511Z,26.06
2018-07-09T14:40:41.638Z,26.25
2018-07-09T14:43:10.736Z,25.85
2018-07-09T14:45:39.837Z,26.05
2018-07-09T14:48:09.185Z,26.22
2018-07-09T14:50:38.303Z,26.20
2018-07-09T14:53:07.377Z,26.70
2018-07-09T14:55:36.493Z,26.20
2018-07-09T14:58:05.609Z,26.21
2018-07-09T15:00:34.753Z,26.17
2018-07-09T15:03:03.923Z,25.83
2018-07-09T15:05:33.053Z,25.62
2018-07-09T15:08:02.169Z,25.58
2018-07-09T15:10:31.270Z,25.62
2018-07-09T15:13:00.365Z,25.64
2018-07-09T15:15:29.450Z,25.66
2018-07-09T15:17:58.589Z,25.28
2018-07-09T15:20:27.680Z,25.55
2018-07-09T15:22:56.782Z,25.31
2018-07-09T15:25:25.881Z,25.44
2018-07-09T15:27:54.985Z,25.53
2018-07-09T15:30:24.066Z,25.38
2018-07-09T15:32:53.180Z,25.21
2018-07-09T15:35:22.290Z,25.44
2018-07-09T15:37:51.393Z,25.45
2018-07-09T15:40:20.524Z,25.40
2018-07-09T15:42:49.605Z,25.26
2018-07-09T15:45:18.690Z,25.42
2018-07-09T15:47:47.803Z,25.43
2018-07-09T15:50:16.919Z,25.48
2018-07-09T15:52:46.049Z,25.43
2018-07-09T15:55:15.185Z,25.11
2018-07-09T15:57:44.910Z,25.19
2018-07-09T16:00:14.008Z,25.11
2018-07-09T16:02:43.129Z,25.32
2018-07-09T16:05:12.229Z,25.48
2018-07-09T16:07:41.417Z,25.63
2018-07-09T16:10:10.522Z,25.58
2018-07-09T16:12:39.652Z,25.70
2018-07-09T16:15:08.781Z,25.51
2018-07-09T16:17:37.892Z,25.55
2018-07-09T16:20:07.037Z,25.60
2018-07-09T16:22:36.149Z,25.48
2018-07-09T16:25:05.256Z,25.53
2018-07-09T16:27:34.385Z,25.25
2018-07-09T16:30:03.553Z,25.11
2018-07-09T16:32:32.662Z,25.11
2018-07-09T16:35:01.737Z,25.20
2018-07-09T16:37:30.934Z,25.24
2018-07-09T16:40:00.019Z,25.29
2018-07-09T16:42:29.120Z,25.32
2018-07-09T16:44:58.173Z,25.34
2018-07-09T16:47:27.347Z,25.32
2018-07-09T16:49:56.458Z,25.26
2018-07-09T16:52:25.561Z,25.28
2018-07-09T16:54:54.754Z,25.31
2018-07-09T16:57:23.789Z,25.15
2018-07-09T16:59:52.885Z,25.01
2018-07-09T17:02:22.001Z,25.01
2018-07-09T17:04:51.097Z,24.96
2018-07-09T17:07:20.190Z,24.89
2018-07-09T17:09:49.285Z,24.87
2018-07-09T17:12:18.391Z,25.16
2018-07-09T17:14:47.501Z,25.13
2018-07-09T17:17:16.600Z,25.05
2018-07-09T17:19:45.701Z,24.86
2018-07-09T17:22:14.785Z,24.79
2018-07-09T17:24:43.909Z,24.79
2018-07-09T17:27:13.022Z,24.70
2018-07-09T17:29:42.091Z,24.70
2018-07-09T17:32:11.336Z,24.78
2018-07-09T17:34:40.361Z,24.82
2018-07-09T17:37:09.473Z,24.44
2018-07-09T17:39:38.573Z,24.43
2018-07-09T17:42:07.705Z,24.51
2018-07-09T17:44:36.813Z,24.50
2018-07-09T17:47:05.989Z,24.50
2018-07-09T17:49:35.290Z,24.50
2018-07-09T17:52:04.393Z,24.34
2018-07-09T17:54:33.481Z,24.15
2018-07-09T17:57:02.621Z,24.23
2018-07-09T17:59:31.717Z,24.28
2018-07-09T18:02:02.753Z,24.09
2018-07-09T18:04:31.884Z,24.17
2018-07-09T18:07:00.993Z,24.08
2018-07-09T18:09:30.090Z,24.09
2018-07-09T18:11:59.213Z,24.15
2018-07-09T18:14:28.321Z,24.16
2018-07-09T18:16:57.415Z,24.14
2018-07-09T18:19:26.542Z,24.04
2018-07-09T18:21:55.633Z,24.20
2018-07-09T18:24:24.793Z,24.27
2018-07-09T18:26:53.931Z,24.21
2018-07-09T18:29:23.061Z,24.06
2018-07-09T18:31:52.221Z,24.07
2018-07-09T18:34:21.377Z,24.00
2018-07-09T18:36:53.901Z,23.93
2018-07-09T18:39:23.122Z,23.97
2018-07-09T18:41:52.346Z,23.98
2018-07-09T18:44:21.558Z,23.97
2018-07-09T18:46:50.681Z,24.03
2018-07-09T18:49:19.791Z,23.78
2018-07-09T18:51:48.925Z,23.75
2018-07-09T18:54:18.109Z,23.67
2018-07-09T18:56:47.253Z,23.64
2018-07-09T18:59:16.337Z,23.67
2018-07-09T19:01:45.452Z,23.69
2018-07-09T19:04:14.551Z,23.60
2018-07-09T19:06:56.482Z,23.65
2018-07-09T19:09:26.409Z,23.52
2018-07-09T19:11:56.117Z,23.48
2018-07-09T19:14:42.453Z,23.53
2018-07-09T19:17:50.906Z,23.43
2018-07-09T19:21:32.194Z,23.49
2018-07-09T19:24:00.667Z,23.40
2018-07-09T19:26:28.672Z,23.50
2018-07-09T19:28:56.674Z,23.35
2018-07-09T19:31:24.667Z,23.44
2018-07-09T19:33:52.674Z,23.42
2018-07-09T19:36:20.672Z,23.31
2018-07-09T19:38:48.689Z,23.38
2018-07-09T19:41:16.725Z,23.44
2018-07-09T19:43:44.725Z,23.38
2018-07-09T19:46:12.717Z,23.24
2018-07-09T19:48:40.722Z,23.34
2018-07-09T19:51:08.725Z,23.19
2018-07-09T19:53:36.713Z,23.23
2018-07-09T19:56:04.721Z,23.31
2018-07-09T19:58:32.707Z,23.33
2018-07-09T20:01:00.697Z,23.41
2018-07-09T20:03:28.766Z,23.27
2018-07-09T20:05:56.688Z,23.23
2018-07-09T20:08:30.921Z,23.21
2018-07-09T20:11:04.238Z,23.16
2018-07-09T20:13:51.535Z,23.08
2018-07-09T20:16:24.893Z,22.92
2018-07-09T20:18:53.520Z,22.80
2018-07-09T20:21:21.527Z,22.72
2018-07-09T20:23:49.532Z,22.84
2018-07-09T20:26:17.519Z,22.85
2018-07-09T20:28:45.501Z,22.58
2018-07-09T20:31:13.511Z,22.57
2018-07-09T20:33:41.519Z,22.54
2018-07-09T20:36:09.517Z,22.55
2018-07-09T20:38:37.509Z,22.58
2018-07-09T20:41:05.521Z,22.34
2018-07-09T20:43:33.597Z,22.32
2018-07-09T20:46:01.593Z,22.42
2018-07-09T20:48:29.603Z,22.33
2018-07-09T20:50:57.601Z,22.36
2018-07-09T20:53:25.617Z,22.29
2018-07-09T20:55:53.637Z,22.37
2018-07-09T20:58:21.633Z,22.25
2018-07-09T21:00:49.625Z,22.31
2018-07-09T21:03:17.621Z,22.35
2018-07-09T21:05:45.614Z,22.26
2018-07-09T21:08:13.613Z,22.04
2018-07-09T21:10:41.601Z,22.23
2018-07-09T21:13:09.601Z,22.20
2018-07-09T21:15:37.660Z,22.10
2018-07-09T21:18:05.601Z,22.09
2018-07-09T21:20:33.590Z,21.98
2018-07-09T21:23:01.590Z,22.12
2018-07-09T21:25:29.577Z,22.21
2018-07-09T21:27:57.577Z,21.93
2018-07-09T21:30:25.599Z,22.03
2018-07-09T21:32:53.617Z,22.03
2018-07-09T21:35:21.606Z,21.87
2018-07-09T21:37:49.679Z,21.80
2018-07-09T21:40:17.613Z,21.87
2018-07-09T21:42:45.605Z,21.70
2018-07-09T21:45:13.609Z,21.63
2018-07-09T21:47:41.597Z,21.79
2018-07-09T21:50:09.610Z,21.73
2018-07-09T21:52:37.597Z,21.48
2018-07-09T21:55:05.865Z,21.65
2018-07-09T21:57:34.205Z,21.47
2018-07-09T22:00:02.206Z,21.42
2018-07-09T22:02:30.213Z,21.30
2018-07-09T22:04:58.198Z,21.23
2018-07-09T22:07:26.189Z,21.21
2018-07-09T22:09:54.181Z,21.30
2018-07-09T22:12:22.186Z,21.21
2018-07-09T22:14:50.190Z,21.30
2018-07-09T22:17:18.182Z,21.34
2018-07-09T22:19:46.173Z,21.31
2018-07-09T22:22:14.173Z,21.23
2018-07-09T22:24:42.204Z,21.14
2018-07-09T22:27:10.167Z,21.20
2018-07-09T22:29:38.152Z,21.02
2018-07-09T22:32:07.268Z,20.83
2018-07-09T22:34:36.352Z,20.77
2018-07-09T22:37:05.460Z,20.69
2018-07-09T22:39:34.561Z,20.76
2018-07-09T22:42:03.681Z,20.68
2018-07-09T22:44:32.801Z,20.70
2018-07-09T22:47:01.912Z,20.55
2018-07-09T22:49:31.021Z,20.48
2018-07-09T22:52:00.126Z,20.48
2018-07-09T22:54:29.264Z,20.53
2018-07-09T22:56:58.375Z,20.36
2018-07-09T22:59:27.499Z,20.38
2018-07-09T23:01:56.600Z,20.32
2018-07-09T23:04:25.697Z,20.36
2018-07-09T23:06:54.821Z,20.38
2018-07-09T23:11:44.809Z,20.32
2018-07-09T23:14:38.994Z,20.11
2018-07-09T23:17:19.329Z,20.24
2018-07-09T23:22:02.973Z,20.24
2018-07-09T23:24:30.965Z,20.08
2018-07-09T23:26:59.317Z,20.17
2018-07-09T23:29:27.309Z,20.10
2018-07-09T23:31:55.332Z,19.98
2018-07-09T23:34:23.325Z,19.90
2018-07-09T23:36:51.321Z,19.87
2018-07-09T23:39:19.325Z,20.00
2018-07-09T23:41:47.352Z,19.92
2018-07-09T23:44:15.353Z,19.90
2018-07-09T23:46:43.350Z,19.74
2018-07-09T23:49:11.341Z,19.78
2018-07-09T23:51:39.335Z,19.86
2018-07-09T23:54:07.326Z,19.61
2018-07-09T23:56:48.249Z,19.63
